createdAt,value
2018-08-23T00:01:27.065Z,25.43
2018-08-23T00:03:58.441Z,25.22
2018-08-23T00:06:26.754Z,25.09
2018-08-23T00:08:57.432Z,25.11
2018-08-23T00:11:27.529Z,25.06
2018-08-23T00:13:55.893Z,25.10
2018-08-23T00:16:33.075Z,25.18
2018-08-23T00:19:02.399Z,25.20
2018-08-23T00:21:30.661Z,25.18
2018-08-23T00:24:07.138Z,25.07
2018-08-23T00:26:36.146Z,25.09
2018-08-23T00:29:06.104Z,25.10
2018-08-23T00:31:38.918Z,25.01
2018-08-23T00:34:07.554Z,24.99
2018-08-23T00:36:36.694Z,25.01
2018-08-23T00:39:06.603Z,25.01
2018-08-23T00:41:34.849Z,25.00
2018-08-23T00:44:03.113Z,24.89
2018-08-23T00:46:31.405Z,24.87
2018-08-23T00:48:59.674Z,24.93
2018-08-23T00:51:27.981Z,24.94
2018-08-23T00:54:01.495Z,24.86
2018-08-23T00:56:29.717Z,24.62
2018-08-23T00:59:00.602Z,24.52
2018-08-23T01:01:29.041Z,24.54
2018-08-23T01:03:57.341Z,24.56
2018-08-23T01:06:37.028Z,24.58
2018-08-23T01:09:07.280Z,24.51
2018-08-23T01:11:35.740Z,24.42
2018-08-23T01:14:04.040Z,24.46
2018-08-23T01:16:32.291Z,24.46
2018-08-23T01:19:05.834Z,24.51
2018-08-23T01:21:40.350Z,24.51
2018-08-23T01:24:08.613Z,24.47
2018-08-23T01:26:36.860Z,24.42
2018-08-23T01:29:15.080Z,24.47
2018-08-23T01:31:43.340Z,24.48
2018-08-23T01:34:11.681Z,24.50
2018-08-23T01:36:39.945Z,24.44
2018-08-23T01:39:10.681Z,24.36
2018-08-23T01:41:38.982Z,24.27
2018-08-23T01:44:07.301Z,24.26
2018-08-23T01:46:40.881Z,24.28
2018-08-23T01:49:09.146Z,24.27
2018-08-23T01:51:37.441Z,24.28
2018-08-23T01:54:05.720Z,24.27
2018-08-23T01:56:33.975Z,24.25
2018-08-23T01:59:02.256Z,24.22
2018-08-23T02:01:30.509Z,24.17
2018-08-23T02:03:58.753Z,24.20
2018-08-23T02:06:32.431Z,24.17
2018-08-23T02:09:00.682Z,23.98
2018-08-23T02:11:28.981Z,23.88
2018-08-23T02:13:57.266Z,23.85
2018-08-23T02:16:25.566Z,23.84
2018-08-23T02:18:53.817Z,23.83
2018-08-23T02:21:22.117Z,23.85
2018-08-23T02:23:52.420Z,23.87
2018-08-23T02:26:20.696Z,23.92
2018-08-23T02:28:50.604Z,23.90
2018-08-23T02:31:18.884Z,23.90
2018-08-23T02:33:47.208Z,23.91
2018-08-23T02:36:16.451Z,23.86
2018-08-23T02:38:45.961Z,23.86
2018-08-23T02:41:14.426Z,23.87
2018-08-23T02:43:43.000Z,23.86
2018-08-23T02:46:11.260Z,23.81
2018-08-23T02:48:39.511Z,23.67
2018-08-23T02:51:07.819Z,23.67
2018-08-23T02:53:37.979Z,23.72
2018-08-23T02:56:09.966Z,23.73
2018-08-23T02:58:57.448Z,23.69
2018-08-23T03:01:27.298Z,23.52
2018-08-23T03:04:06.836Z,23.56
2018-08-23T03:06:55.523Z,23.58
2018-08-23T03:09:39.900Z,23.56
2018-08-23T03:12:22.825Z,23.42
2018-08-23T03:14:51.069Z,23.35
2018-08-23T03:17:22.862Z,23.32
2018-08-23T03:20:11.962Z,23.30
2018-08-23T03:22:40.654Z,23.26
2018-08-23T03:25:10.361Z,23.30
2018-08-23T03:27:38.627Z,23.35
2018-08-23T03:30:08.979Z,23.36
2018-08-23T03:32:37.273Z,23.30
2018-08-23T03:35:05.661Z,23.22
2018-08-23T03:37:33.948Z,22.98
2018-08-23T03:40:02.204Z,22.93
2018-08-23T03:42:30.514Z,22.95
2018-08-23T03:44:59.488Z,23.00
2018-08-23T03:47:30.996Z,23.06
2018-08-23T03:50:00.756Z,22.99
2018-08-23T03:52:34.335Z,22.94
2018-08-23T03:55:02.560Z,22.91
2018-08-23T03:57:36.188Z,22.93
2018-08-23T04:00:04.427Z,22.95
2018-08-23T04:02:32.717Z,22.96
2018-08-23T04:05:19.496Z,22.98
2018-08-23T04:07:47.831Z,22.96
2018-08-23T04:10:16.060Z,22.96
2018-08-23T04:12:44.908Z,22.90
2018-08-23T04:15:25.429Z,22.88
2018-08-23T04:17:53.666Z,22.89
2018-08-23T04:20:21.904Z,22.90
2018-08-23T04:22:50.276Z,22.90
2018-08-23T04:25:18.493Z,22.89
2018-08-23T04:27:46.776Z,22.86
2018-08-23T04:30:15.562Z,22.85
2018-08-23T04:32:49.513Z,22.80
2018-08-23T04:35:23.261Z,22.74
2018-08-23T04:37:52.163Z,22.78
2018-08-23T04:40:20.400Z,22.78
2018-08-23T04:42:48.661Z,22.75
2018-08-23T04:45:22.177Z,22.76
2018-08-23T04:47:55.632Z,22.78
2018-08-23T04:50:25.188Z,22.81
2018-08-23T04:52:53.423Z,22.84
2018-08-23T04:55:21.721Z,22.87
2018-08-23T04:57:49.946Z,22.86
2018-08-23T05:00:18.215Z,22.91
2018-08-23T05:02:48.685Z,22.94
2018-08-23T05:05:16.960Z,22.94
2018-08-23T05:07:45.225Z,22.94
2018-08-23T05:10:13.699Z,23.01
2018-08-23T05:12:42.116Z,23.12
2018-08-23T05:15:10.390Z,23.18
2018-08-23T05:17:38.660Z,23.21
2018-08-23T05:20:07.094Z,23.18
2018-08-23T05:22:35.317Z,23.16
2018-08-23T05:25:12.620Z,23.15
2018-08-23T05:27:57.699Z,23.12
2018-08-23T05:30:26.997Z,23.13
2018-08-23T05:32:59.400Z,23.18
2018-08-23T05:35:28.213Z,23.21
2018-08-23T05:37:56.449Z,23.23
2018-08-23T05:40:24.708Z,23.24
2018-08-23T05:42:56.643Z,23.32
2018-08-23T05:45:35.886Z,23.39
2018-08-23T05:48:15.513Z,23.44
2018-08-23T05:50:43.964Z,23.53
2018-08-23T05:53:13.357Z,23.58
2018-08-23T05:55:41.614Z,23.61
2018-08-23T05:58:15.836Z,23.77
2018-08-23T06:00:44.212Z,23.94
2018-08-23T06:03:13.370Z,24.09
2018-08-23T06:05:41.654Z,24.17
2018-08-23T06:08:10.235Z,24.31
2018-08-23T06:10:38.512Z,24.47
2018-08-23T06:13:06.771Z,24.59
2018-08-23T06:15:39.210Z,24.73
2018-08-23T06:18:07.829Z,24.89
2018-08-23T06:20:36.076Z,24.91
2018-08-23T06:23:04.301Z,24.99
2018-08-23T06:25:32.558Z,25.14
2018-08-23T06:28:00.797Z,25.28
2018-08-23T06:30:29.044Z,25.39
2018-08-23T06:33:03.605Z,25.48
2018-08-23T06:35:36.052Z,25.64
2018-08-23T06:38:04.396Z,25.76
2018-08-23T06:40:32.672Z,25.76
2018-08-23T06:43:05.944Z,25.78
2018-08-23T06:45:34.258Z,25.94
2018-08-23T06:48:03.396Z,26.08
2018-08-23T06:50:31.685Z,26.25
2018-08-23T06:52:59.900Z,26.27
2018-08-23T06:55:35.543Z,26.26
2018-08-23T06:58:04.831Z,26.39
2018-08-23T07:00:33.533Z,26.46
2018-08-23T07:03:04.193Z,26.55
2018-08-23T07:05:32.574Z,26.56
2018-08-23T07:08:00.822Z,26.42
2018-08-23T07:10:29.156Z,26.50
2018-08-23T07:12:57.780Z,26.49
2018-08-23T07:15:26.158Z,26.45
2018-08-23T07:17:54.497Z,26.45
2018-08-23T07:20:22.797Z,26.44
2018-08-23T07:22:51.122Z,26.44
2018-08-23T07:25:19.975Z,26.43
2018-08-23T07:27:48.288Z,26.38
2018-08-23T07:30:20.308Z,26.40
2018-08-23T07:32:49.871Z,26.50
2018-08-23T07:35:19.402Z,26.53
2018-08-23T07:37:49.287Z,26.61
2018-08-23T07:40:18.496Z,26.71
2018-08-23T07:42:48.121Z,26.75
2018-08-23T07:45:16.987Z,26.68
2018-08-23T07:47:46.584Z,26.72
2018-08-23T07:50:14.985Z,26.74
2018-08-23T07:52:44.659Z,26.70
2018-08-23T07:55:13.205Z,26.71
2018-08-23T07:57:41.918Z,26.84
2018-08-23T08:00:38.224Z,26.90
2018-08-23T08:03:06.630Z,27.02
2018-08-23T08:05:38.273Z,26.96
2018-08-23T08:08:08.122Z,27.07
2018-08-23T08:10:42.876Z,27.00
2018-08-23T08:13:11.981Z,26.79
2018-08-23T08:15:40.256Z,27.06
2018-08-23T08:18:12.741Z,27.11
2018-08-23T08:20:41.435Z,27.31
2018-08-23T08:23:09.757Z,27.55
2018-08-23T08:25:38.008Z,27.54
2018-08-23T08:28:10.700Z,27.69
2018-08-23T08:30:44.302Z,27.81
2018-08-23T08:33:26.900Z,27.92
2018-08-23T08:35:59.834Z,27.79
2018-08-23T08:38:28.142Z,27.62
2018-08-23T08:40:56.424Z,27.67
2018-08-23T08:43:25.368Z,27.81
2018-08-23T08:45:55.653Z,27.87
2018-08-23T08:48:29.997Z,27.80
2018-08-23T08:51:14.901Z,27.80
2018-08-23T08:53:43.756Z,27.75
2018-08-23T08:56:12.012Z,27.75
2018-08-23T08:58:41.626Z,27.82
2018-08-23T09:01:09.872Z,28.05
2018-08-23T09:03:38.928Z,28.14
2018-08-23T09:06:08.588Z,28.27
2018-08-23T09:08:38.110Z,28.48
2018-08-23T09:11:06.633Z,28.67
2018-08-23T09:13:40.234Z,28.75
2018-08-23T09:16:10.797Z,28.71
2018-08-23T09:18:42.315Z,28.80
2018-08-23T09:21:11.386Z,28.88
2018-08-23T09:23:39.818Z,28.75
2018-08-23T09:26:08.143Z,28.76
2018-08-23T09:28:36.437Z,28.76
2018-08-23T09:31:04.710Z,28.75
2018-08-23T09:33:33.016Z,28.63
2018-08-23T09:36:01.312Z,28.52
2018-08-23T09:38:29.613Z,28.46
2018-08-23T09:40:57.882Z,28.69
2018-08-23T09:43:26.162Z,28.64
2018-08-23T09:45:54.425Z,28.71
2018-08-23T09:48:22.778Z,28.81
2018-08-23T09:50:51.205Z,28.92
2018-08-23T09:53:25.398Z,28.92
2018-08-23T09:55:55.199Z,29.01
2018-08-23T09:58:28.682Z,29.11
2018-08-23T10:01:02.270Z,29.15
2018-08-23T10:03:36.088Z,29.33
2018-08-23T10:06:09.585Z,29.34
2018-08-23T10:08:43.152Z,29.37
2018-08-23T10:11:20.999Z,29.56
2018-08-23T10:13:54.466Z,29.68
2018-08-23T10:16:27.919Z,29.70
2018-08-23T10:18:58.214Z,29.72
2018-08-23T10:21:31.855Z,30.03
2018-08-23T10:24:12.785Z,30.12
2018-08-23T10:26:41.149Z,29.90
2018-08-23T10:29:10.290Z,29.96
2018-08-23T10:31:38.576Z,30.01
2018-08-23T10:34:07.632Z,29.83
2018-08-23T10:36:36.085Z,29.92
2018-08-23T10:39:08.213Z,29.94
2018-08-23T10:41:36.585Z,29.94
2018-08-23T10:44:05.058Z,30.04
2018-08-23T10:46:38.749Z,30.05
2018-08-23T10:49:07.248Z,30.03
2018-08-23T10:51:35.793Z,29.87
2018-08-23T10:54:04.269Z,29.73
2018-08-23T10:56:32.913Z,29.89
2018-08-23T10:59:01.349Z,29.76
2018-08-23T11:01:30.103Z,29.86
2018-08-23T11:04:04.028Z,29.90
2018-08-23T11:06:32.451Z,29.59
2018-08-23T11:09:06.069Z,29.59
2018-08-23T11:11:36.130Z,29.61
2018-08-23T11:14:10.500Z,29.66
2018-08-23T11:16:44.811Z,29.85
2018-08-23T11:19:18.427Z,29.70
2018-08-23T11:21:46.893Z,29.89
2018-08-23T11:24:15.425Z,30.04
2018-08-23T11:26:43.969Z,30.14
2018-08-23T11:29:12.257Z,30.06
2018-08-23T11:31:40.565Z,30.19
2018-08-23T11:34:08.866Z,30.18
2018-08-23T11:36:37.268Z,30.15
2018-08-23T11:39:08.262Z,29.97
2018-08-23T11:41:36.985Z,30.18
2018-08-23T11:44:05.717Z,30.36
2018-08-23T11:46:34.390Z,30.45
2018-08-23T11:49:02.795Z,30.48
2018-08-23T11:51:31.260Z,30.40
2018-08-23T11:53:59.731Z,30.10
2018-08-23T11:56:28.296Z,30.42
2018-08-23T11:58:56.732Z,30.53
2018-08-23T12:01:25.018Z,30.67
2018-08-23T12:03:53.282Z,30.65
2018-08-23T12:06:21.597Z,30.74
2018-08-23T12:08:50.016Z,30.87
2018-08-23T12:11:18.560Z,31.10
2018-08-23T12:13:50.179Z,31.05
2018-08-23T12:16:18.696Z,30.92
2018-08-23T12:18:46.996Z,31.15
2018-08-23T12:21:15.507Z,31.25
2018-08-23T12:23:43.812Z,31.34
2018-08-23T12:26:12.769Z,31.43
2018-08-23T12:28:46.370Z,31.26
2018-08-23T12:31:14.961Z,31.38
2018-08-23T12:33:43.449Z,31.19
2018-08-23T12:36:12.702Z,30.95
2018-08-23T12:38:46.494Z,31.12
2018-08-23T12:41:20.372Z,30.90
2018-08-23T12:43:50.214Z,31.06
2018-08-23T12:46:18.626Z,31.17
2018-08-23T12:48:47.974Z,31.02
2018-08-23T12:51:16.385Z,30.87
2018-08-23T12:53:44.665Z,30.77
2018-08-23T12:56:13.469Z,30.97
2018-08-23T12:58:41.977Z,31.02
2018-08-23T13:01:10.520Z,30.94
2018-08-23T13:03:38.854Z,31.03
2018-08-23T13:06:07.615Z,31.22
2018-08-23T13:08:36.380Z,31.17
2018-08-23T13:11:04.986Z,31.27
2018-08-23T13:13:33.313Z,31.20
2018-08-23T13:16:01.655Z,31.29
2018-08-23T13:18:29.998Z,31.33
2018-08-23T13:20:58.534Z,31.23
2018-08-23T13:23:26.827Z,31.22
2018-08-23T13:25:55.770Z,31.35
2018-08-23T13:28:24.895Z,31.45
2018-08-23T13:30:53.526Z,31.46
2018-08-23T13:33:22.284Z,31.59
2018-08-23T13:35:50.586Z,31.34
2018-08-23T13:38:19.364Z,31.39
2018-08-23T13:40:48.521Z,31.40
2018-08-23T13:43:17.164Z,31.61
2018-08-23T13:45:45.803Z,31.58
2018-08-23T13:48:14.379Z,31.62
2018-08-23T13:50:42.913Z,31.55
2018-08-23T13:53:11.193Z,31.72
2018-08-23T13:55:39.705Z,31.79
2018-08-23T13:58:08.245Z,31.72
2018-08-23T14:00:40.640Z,31.90
2018-08-23T14:03:09.881Z,31.77
2018-08-23T14:05:39.972Z,31.70
2018-08-23T14:08:08.951Z,31.91
2018-08-23T14:10:37.515Z,31.99
2018-08-23T14:13:06.304Z,32.04
2018-08-23T14:15:40.235Z,32.16
2018-08-23T14:18:08.796Z,32.33
2018-08-23T14:20:37.348Z,32.38
2018-08-23T14:23:06.545Z,32.38
2018-08-23T14:25:35.217Z,32.34
2018-08-23T14:28:03.890Z,32.30
2018-08-23T14:30:32.376Z,32.24
2018-08-23T14:33:01.054Z,32.23
2018-08-23T14:35:29.281Z,32.19
2018-08-23T14:37:57.609Z,32.22
2018-08-23T14:40:25.856Z,32.28
2018-08-23T14:42:55.065Z,32.11
2018-08-23T14:45:28.581Z,32.16
2018-08-23T14:48:02.309Z,31.98
2018-08-23T14:50:31.622Z,31.91
2018-08-23T14:52:59.917Z,32.10
2018-08-23T14:55:33.786Z,32.20
2018-08-23T14:58:02.036Z,32.16
2018-08-23T15:00:30.509Z,32.08
2018-08-23T15:02:58.788Z,31.96
2018-08-23T15:05:27.024Z,31.94
2018-08-23T15:07:55.289Z,31.94
2018-08-23T15:10:23.535Z,31.91
2018-08-23T15:12:51.805Z,31.82
2018-08-23T15:15:24.196Z,31.92
2018-08-23T15:17:52.568Z,31.85
2018-08-23T15:20:20.821Z,31.78
2018-08-23T15:22:49.065Z,31.86
2018-08-23T15:25:17.281Z,31.90
2018-08-23T15:27:45.517Z,31.88
2018-08-23T15:30:13.782Z,31.83
2018-08-23T15:32:42.009Z,31.36
2018-08-23T15:35:10.273Z,31.44
2018-08-23T15:37:38.516Z,31.39
2018-08-23T15:40:06.764Z,31.34
2018-08-23T15:42:34.995Z,31.53
2018-08-23T15:45:03.351Z,31.63
2018-08-23T15:47:31.544Z,31.67
2018-08-23T15:49:59.856Z,31.54
2018-08-23T15:52:30.224Z,31.45
2018-08-23T15:54:58.480Z,31.41
2018-08-23T15:57:26.728Z,31.35
2018-08-23T15:59:54.968Z,31.46
2018-08-23T16:02:23.184Z,31.48
2018-08-23T16:04:51.432Z,31.48
2018-08-23T16:07:19.718Z,31.57
2018-08-23T16:09:47.966Z,31.54
2018-08-23T16:12:16.212Z,31.52
2018-08-23T16:14:44.513Z,31.45
2018-08-23T16:17:17.972Z,31.21
2018-08-23T16:19:51.536Z,31.27
2018-08-23T16:22:19.815Z,31.22
2018-08-23T16:24:48.137Z,31.11
2018-08-23T16:27:16.316Z,31.08
2018-08-23T16:29:50.442Z,31.21
2018-08-23T16:32:24.181Z,31.27
2018-08-23T16:34:52.536Z,31.31
2018-08-23T16:37:20.742Z,31.29
2018-08-23T16:39:48.978Z,31.32
2018-08-23T16:42:17.209Z,31.23
2018-08-23T16:44:45.457Z,31.25
2018-08-23T16:47:13.745Z,31.27
2018-08-23T16:49:42.072Z,31.06
2018-08-23T16:52:10.408Z,31.00
2018-08-23T16:54:38.724Z,31.01
2018-08-23T16:57:07.044Z,31.00
2018-08-23T16:59:35.341Z,30.93
2018-08-23T17:02:03.733Z,30.75
2018-08-23T17:04:37.396Z,30.55
2018-08-23T17:07:05.752Z,30.66
2018-08-23T17:09:34.051Z,30.63
2018-08-23T17:12:02.369Z,30.60
2018-08-23T17:14:30.651Z,30.61
2018-08-23T17:17:04.219Z,30.58
2018-08-23T17:19:32.541Z,30.65
2018-08-23T17:22:00.840Z,30.58
2018-08-23T17:24:29.193Z,30.59
2018-08-23T17:26:57.484Z,30.58
2018-08-23T17:29:25.717Z,30.47
2018-08-23T17:31:53.924Z,30.47
2018-08-23T17:34:22.275Z,30.37
2018-08-23T17:36:50.508Z,30.42
2018-08-23T17:39:18.754Z,30.41
2018-08-23T17:41:46.992Z,30.36
2018-08-23T17:44:15.276Z,30.30
2018-08-23T17:46:43.522Z,30.33
2018-08-23T17:49:11.894Z,30.38
2018-08-23T17:51:40.812Z,30.37
2018-08-23T17:54:09.069Z,30.39
2018-08-23T17:56:37.288Z,30.39
2018-08-23T17:59:05.633Z,30.42
2018-08-23T18:01:33.865Z,30.36
2018-08-23T18:04:02.364Z,30.37
2018-08-23T18:06:30.623Z,30.38
2018-08-23T18:08:58.953Z,30.39
2018-08-23T18:11:27.821Z,30.34
2018-08-23T18:13:56.085Z,30.32
2018-08-23T18:16:30.041Z,30.33
2018-08-23T18:18:58.309Z,30.34
2018-08-23T18:21:26.545Z,30.27
2018-08-23T18:23:54.832Z,30.19
2018-08-23T18:26:23.902Z,30.11
2018-08-23T18:28:52.313Z,30.03
2018-08-23T18:31:21.057Z,30.05
2018-08-23T18:33:49.451Z,29.98
2018-08-23T18:36:17.996Z,29.90
2018-08-23T18:38:46.781Z,29.84
2018-08-23T18:41:15.113Z,29.78
2018-08-23T18:43:43.422Z,29.70
2018-08-23T18:46:11.853Z,29.68
2018-08-23T18:48:40.100Z,29.71
2018-08-23T18:51:08.408Z,29.65
2018-08-23T18:53:36.727Z,29.57
2018-08-23T18:56:05.204Z,29.45
2018-08-23T18:58:33.599Z,29.35
2018-08-23T19:01:02.098Z,29.28
2018-08-23T19:03:30.618Z,29.16
2018-08-23T19:05:58.884Z,29.13
2018-08-23T19:08:27.807Z,29.12
2018-08-23T19:10:56.080Z,29.09
2018-08-23T19:13:24.457Z,29.05
2018-08-23T19:15:58.323Z,29.01
2018-08-23T19:18:26.565Z,28.98
2018-08-23T19:20:54.924Z,28.96
2018-08-23T19:23:23.299Z,28.89
2018-08-23T19:25:51.657Z,28.87
2018-08-23T19:28:20.489Z,28.83
2018-08-23T19:30:48.820Z,28.83
2018-08-23T19:33:17.413Z,28.81
2018-08-23T19:35:46.587Z,28.75
2018-08-23T19:38:15.928Z,28.72
2018-08-23T19:40:44.493Z,28.69
2018-08-23T19:43:14.140Z,28.63
2018-08-23T19:45:47.841Z,28.53
2018-08-23T19:48:16.768Z,28.51
2018-08-23T19:50:45.097Z,28.47
2018-08-23T19:53:14.680Z,28.42
2018-08-23T19:55:43.076Z,28.39
2018-08-23T19:58:12.289Z,28.37
2018-08-23T20:00:40.743Z,28.33
2018-08-23T20:03:09.017Z,28.25
2018-08-23T20:05:37.910Z,28.16
2018-08-23T20:08:06.359Z,28.10
2018-08-23T20:10:34.634Z,28.06
2018-08-23T20:13:02.964Z,27.97
2018-08-23T20:15:31.698Z,27.89
2018-08-23T20:18:00.153Z,27.86
2018-08-23T20:20:28.804Z,27.80
2018-08-23T20:22:57.236Z,27.71
2018-08-23T20:25:26.868Z,27.64
2018-08-23T20:27:55.453Z,27.54
2018-08-23T20:30:23.766Z,27.50
2018-08-23T20:32:52.149Z,27.30
2018-08-23T20:35:20.432Z,27.15
2018-08-23T20:37:48.745Z,27.12
2018-08-23T20:40:16.997Z,27.09
2018-08-23T20:42:46.273Z,27.06
2018-08-23T20:45:14.668Z,27.00
2018-08-23T20:47:43.171Z,26.95
2018-08-23T20:50:11.935Z,26.91
2018-08-23T20:52:40.433Z,26.84
2018-08-23T20:55:08.965Z,26.85
2018-08-23T20:57:37.409Z,26.84
2018-08-23T21:00:06.890Z,26.78
2018-08-23T21:02:35.157Z,26.73
2018-08-23T21:05:03.693Z,26.73
2018-08-23T21:07:32.010Z,26.71
2018-08-23T21:10:00.393Z,26.66
2018-08-23T21:12:28.581Z,26.44
2018-08-23T21:14:57.172Z,26.17
2018-08-23T21:17:25.481Z,26.02
2018-08-23T21:19:54.037Z,25.84
2018-08-23T21:22:22.492Z,25.75
2018-08-23T21:24:50.772Z,25.68
2018-08-23T21:27:19.318Z,25.59
2018-08-23T21:29:48.014Z,25.51
2018-08-23T21:32:16.293Z,25.63
2018-08-23T21:34:44.549Z,25.55
2018-08-23T21:37:12.830Z,25.55
2018-08-23T21:39:41.105Z,25.49
2018-08-23T21:42:09.423Z,25.50
2018-08-23T21:44:37.700Z,25.50
2018-08-23T21:47:07.105Z,25.60
2018-08-23T21:49:35.429Z,25.66
2018-08-23T21:52:03.706Z,25.60
2018-08-23T21:54:31.998Z,25.63
2018-08-23T21:57:00.269Z,25.62
2018-08-23T21:59:28.537Z,25.64
2018-08-23T22:02:01.995Z,25.62
2018-08-23T22:04:30.270Z,25.60
2018-08-23T22:06:58.537Z,25.61
2018-08-23T22:09:26.810Z,25.64
2018-08-23T22:11:55.062Z,25.59
2018-08-23T22:14:23.326Z,25.53
2018-08-23T22:16:51.579Z,25.51
2018-08-23T22:19:34.035Z,25.39
2018-08-23T22:22:02.277Z,25.39
2018-08-23T22:24:30.534Z,25.32
2018-08-23T22:26:58.859Z,25.23
2018-08-23T22:29:27.041Z,25.18
2018-08-23T22:31:55.276Z,25.12
2018-08-23T22:34:23.517Z,25.08
2018-08-23T22:36:51.804Z,25.08
2018-08-23T22:39:20.066Z,24.99
2018-08-23T22:41:48.320Z,24.96
2018-08-23T22:44:16.724Z,24.97
2018-08-23T22:46:45.709Z,24.96
2018-08-23T22:49:13.952Z,24.86
2018-08-23T22:51:42.221Z,24.87
2018-08-23T22:54:10.508Z,24.84
2018-08-23T22:56:38.781Z,24.78
2018-08-23T22:59:07.053Z,24.63
2018-08-23T23:01:35.288Z,24.59
2018-08-23T23:04:08.933Z,24.52
2018-08-23T23:06:37.226Z,24.54
2018-08-23T23:09:09.850Z,24.49
2018-08-23T23:11:38.284Z,24.48
2018-08-23T23:14:06.651Z,24.43
2018-08-23T23:16:34.934Z,24.39
2018-08-23T23:19:04.485Z,24.34
2018-08-23T23:21:32.815Z,24.32
2018-08-23T23:24:01.559Z,24.26
2018-08-23T23:26:29.951Z,24.26
2018-08-23T23:28:58.281Z,24.24
2018-08-23T23:31:26.535Z,24.33
2018-08-23T23:33:54.825Z,24.30
2018-08-23T23:36:23.093Z,24.36
2018-08-23T23:38:51.385Z,24.37
2018-08-23T23:41:19.641Z,24.37
2018-08-23T23:43:47.937Z,24.38
2018-08-23T23:46:16.205Z,24.39
2018-08-23T23:48:44.523Z,24.43
2018-08-23T23:51:12.803Z,24.43
2018-08-23T23:53:41.111Z,24.38
2018-08-23T23:56:09.363Z,24.38
2018-08-23T23:58:37.670Z,24.36
